sensor_id;sensor_type;location;lat;lon;timestamp;pressure;altitude;pressure_sealevel;temperature;humidity
54736;BME280;40632;51.442;11.936;2022-08-20T00:00:03;100170.31;;;29.53;60.45
54736;BME280;40632;51.442;11.936;2022-08-20T00:02:37;100161.38;;;30.00;59.64
54736;BME280;40632;51.442;11.936;2022-08-20T00:05:04;100158.75;;;30.05;59.55
54736;BME280;40632;51.442;11.936;2022-08-20T00:07:32;100167.94;;;29.92;59.21
54736;BME280;40632;51.442;11.936;2022-08-20T00:09:58;100164.56;;;31.12;56.82
54736;BME280;40632;51.442;11.936;2022-08-20T00:12:23;100161.94;;;31.51;55.18
54736;BME280;40632;51.442;11.936;2022-08-20T00:14:49;100166.34;;;30.89;55.78
54736;BME280;40632;51.442;11.936;2022-08-20T00:17:15;100163.50;;;31.30;54.99
54736;BME280;40632;51.442;11.936;2022-08-20T00:19:40;100161.13;;;31.89;53.62
54736;BME280;40632;51.442;11.936;2022-08-20T00:22:06;100163.22;;;31.82;53.86
54736;BME280;40632;51.442;11.936;2022-08-20T00:24:34;100161.41;;;32.32;52.25
54736;BME280;40632;51.442;11.936;2022-08-20T00:27:00;100157.94;;;31.53;54.09
54736;BME280;40632;51.442;11.936;2022-08-20T00:29:25;100151.94;;;31.17;55.00
54736;BME280;40632;51.442;11.936;2022-08-20T00:31:51;100159.59;;;30.75;56.66
54736;BME280;40632;51.442;11.936;2022-08-20T00:34:17;100167.41;;;30.88;56.15
54736;BME280;40632;51.442;11.936;2022-08-20T00:36:42;100159.72;;;31.87;53.58
54736;BME280;40632;51.442;11.936;2022-08-20T00:39:08;100163.69;;;32.01;53.43
54736;BME280;40632;51.442;11.936;2022-08-20T00:41:36;100161.50;;;32.42;51.96
54736;BME280;40632;51.442;11.936;2022-08-20T00:44:08;100149.25;;;32.40;52.19
54736;BME280;40632;51.442;11.936;2022-08-20T00:46:34;100154.38;;;32.36;52.10
54736;BME280;40632;51.442;11.936;2022-08-20T00:49:01;100147.03;;;31.70;52.98
54736;BME280;40632;51.442;11.936;2022-08-20T00:51:31;100151.38;;;30.87;55.52
54736;BME280;40632;51.442;11.936;2022-08-20T00:54:01;100158.63;;;30.52;56.38
54736;BME280;40632;51.442;11.936;2022-08-20T00:56:27;100149.25;;;29.43;59.22
54736;BME280;40632;51.442;11.936;2022-08-20T00:58:57;100155.47;;;30.03;58.04
54736;BME280;40632;51.442;11.936;2022-08-20T01:01:23;100159.75;;;30.28;57.40
54736;BME280;40632;51.442;11.936;2022-08-20T01:03:49;100161.94;;;30.02;58.23
54736;BME280;40632;51.442;11.936;2022-08-20T01:06:15;100158.00;;;30.62;56.70
54736;BME280;40632;51.442;11.936;2022-08-20T01:08:40;100165.00;;;31.04;55.44
54736;BME280;40632;51.442;11.936;2022-08-20T01:11:06;100172.81;;;30.71;55.67
54736;BME280;40632;51.442;11.936;2022-08-20T01:13:34;100165.47;;;31.34;54.90
54736;BME280;40632;51.442;11.936;2022-08-20T01:16:07;100166.50;;;30.83;55.52
54736;BME280;40632;51.442;11.936;2022-08-20T01:18:35;100163.59;;;31.52;54.13
54736;BME280;40632;51.442;11.936;2022-08-20T01:21:03;100162.59;;;31.24;54.20
54736;BME280;40632;51.442;11.936;2022-08-20T01:23:42;100160.13;;;31.23;54.67
54736;BME280;40632;51.442;11.936;2022-08-20T01:26:16;100154.16;;;31.04;55.56
54736;BME280;40632;51.442;11.936;2022-08-20T01:28:46;100154.06;;;30.70;56.35
54736;BME280;40632;51.442;11.936;2022-08-20T01:31:15;100146.28;;;30.90;56.12
54736;BME280;40632;51.442;11.936;2022-08-20T01:33:42;100143.00;;;30.88;55.98
54736;BME280;40632;51.442;11.936;2022-08-20T01:36:09;100146.41;;;30.95;56.10
54736;BME280;40632;51.442;11.936;2022-08-20T01:38:36;100149.47;;;30.70;56.34
54736;BME280;40632;51.442;11.936;2022-08-20T01:41:27;100161.00;;;30.49;57.78
54736;BME280;40632;51.442;11.936;2022-08-20T01:43:55;100161.44;;;30.74;56.60
54736;BME280;40632;51.442;11.936;2022-08-20T01:46:23;100159.03;;;31.41;54.83
54736;BME280;40632;51.442;11.936;2022-08-20T01:48:50;100157.63;;;31.72;54.33
54736;BME280;40632;51.442;11.936;2022-08-20T01:51:20;100155.13;;;31.87;53.83
54736;BME280;40632;51.442;11.936;2022-08-20T01:53:49;100153.00;;;32.11;52.97
54736;BME280;40632;51.442;11.936;2022-08-20T01:56:19;100155.31;;;31.81;53.36
54736;BME280;40632;51.442;11.936;2022-08-20T01:58:49;100144.44;;;32.03;53.61
54736;BME280;40632;51.442;11.936;2022-08-20T02:01:20;100150.13;;;31.79;53.55
54736;BME280;40632;51.442;11.936;2022-08-20T02:03:46;100155.41;;;31.69;54.14
54736;BME280;40632;51.442;11.936;2022-08-20T02:06:12;100166.03;;;31.03;55.12
54736;BME280;40632;51.442;11.936;2022-08-20T02:08:37;100161.44;;;31.54;55.20
54736;BME280;40632;51.442;11.936;2022-08-20T02:11:03;100161.72;;;32.14;53.33
54736;BME280;40632;51.442;11.936;2022-08-20T02:13:29;100165.22;;;32.09;53.61
54736;BME280;40632;51.442;11.936;2022-08-20T02:15:57;100165.53;;;31.96;53.65
54736;BME280;40632;51.442;11.936;2022-08-20T02:18:22;100170.72;;;31.58;54.42
54736;BME280;40632;51.442;11.936;2022-08-20T02:20:49;100173.53;;;31.85;54.39
54736;BME280;40632;51.442;11.936;2022-08-20T02:23:15;100176.81;;;30.97;55.99
54736;BME280;40632;51.442;11.936;2022-08-20T02:25:42;100183.22;;;30.34;57.24
54736;BME280;40632;51.442;11.936;2022-08-20T02:28:11;100177.31;;;30.66;56.65
54736;BME280;40632;51.442;11.936;2022-08-20T02:30:39;100183.31;;;30.27;57.94
54736;BME280;40632;51.442;11.936;2022-08-20T02:33:10;100179.94;;;30.60;56.64
54736;BME280;40632;51.442;11.936;2022-08-20T02:35:37;100178.47;;;30.87;56.13
54736;BME280;40632;51.442;11.936;2022-08-20T02:38:03;100182.00;;;30.70;56.67
54736;BME280;40632;51.442;11.936;2022-08-20T02:40:30;100183.53;;;30.26;57.21
54736;BME280;40632;51.442;11.936;2022-08-20T02:42:56;100190.22;;;30.75;56.36
54736;BME280;40632;51.442;11.936;2022-08-20T02:45:22;100182.03;;;30.18;57.62
54736;BME280;40632;51.442;11.936;2022-08-20T02:47:49;100188.53;;;29.34;59.87
54736;BME280;40632;51.442;11.936;2022-08-20T02:50:19;100188.16;;;29.19;60.70
54736;BME280;40632;51.442;11.936;2022-08-20T02:52:45;100189.38;;;28.62;62.13
54736;BME280;40632;51.442;11.936;2022-08-20T02:55:11;100184.00;;;28.44;63.26
54736;BME280;40632;51.442;11.936;2022-08-20T02:57:38;100186.59;;;28.50;62.88
54736;BME280;40632;51.442;11.936;2022-08-20T03:00:07;100185.72;;;28.87;62.47
54736;BME280;40632;51.442;11.936;2022-08-20T03:02:33;100186.03;;;28.79;62.43
54736;BME280;40632;51.442;11.936;2022-08-20T03:04:58;100190.84;;;28.77;62.70
54736;BME280;40632;51.442;11.936;2022-08-20T03:07:27;100191.72;;;28.40;63.96
54736;BME280;40632;51.442;11.936;2022-08-20T03:09:52;100187.41;;;28.69;63.00
54736;BME280;40632;51.442;11.936;2022-08-20T03:12:18;100185.03;;;27.87;64.94
54736;BME280;40632;51.442;11.936;2022-08-20T03:14:43;100183.72;;;28.33;63.96
54736;BME280;40632;51.442;11.936;2022-08-20T03:17:09;100191.72;;;28.22;64.16
54736;BME280;40632;51.442;11.936;2022-08-20T03:19:35;100193.84;;;28.20;64.24
54736;BME280;40632;51.442;11.936;2022-08-20T03:22:00;100195.00;;;27.87;65.02
54736;BME280;40632;51.442;11.936;2022-08-20T03:24:28;100187.81;;;28.36;63.87
54736;BME280;40632;51.442;11.936;2022-08-20T03:26:54;100190.03;;;27.90;64.42
54736;BME280;40632;51.442;11.936;2022-08-20T03:29:20;100191.81;;;27.71;65.78
54736;BME280;40632;51.442;11.936;2022-08-20T03:31:45;100187.41;;;28.21;63.71
54736;BME280;40632;51.442;11.936;2022-08-20T03:34:11;100190.88;;;28.40;62.72
54736;BME280;40632;51.442;11.936;2022-08-20T03:36:39;100191.38;;;28.97;61.25
54736;BME280;40632;51.442;11.936;2022-08-20T03:39:06;100179.72;;;28.55;63.12
54736;BME280;40632;51.442;11.936;2022-08-20T03:41:35;100185.47;;;28.88;61.98
54736;BME280;40632;51.442;11.936;2022-08-20T03:44:00;100180.78;;;29.50;60.62
54736;BME280;40632;51.442;11.936;2022-08-20T03:46:26;100177.81;;;29.27;60.54
54736;BME280;40632;51.442;11.936;2022-08-20T03:48:52;100178.41;;;29.18;61.64
54736;BME280;40632;51.442;11.936;2022-08-20T03:51:17;100188.16;;;28.77;62.43
54736;BME280;40632;51.442;11.936;2022-08-20T03:53:43;100181.56;;;28.73;62.46
54736;BME280;40632;51.442;11.936;2022-08-20T03:56:09;100176.03;;;28.67;62.92
54736;BME280;40632;51.442;11.936;2022-08-20T03:58:38;100175.78;;;28.69;63.03
54736;BME280;40632;51.442;11.936;2022-08-20T04:01:05;100178.56;;;28.93;62.22
54736;BME280;40632;51.442;11.936;2022-08-20T04:03:30;100180.53;;;29.16;61.05
54736;BME280;40632;51.442;11.936;2022-08-20T04:05:56;100177.72;;;29.81;59.27
54736;BME280;40632;51.442;11.936;2022-08-20T04:08:24;100179.63;;;29.93;58.83
54736;BME280;40632;51.442;11.936;2022-08-20T04:10:50;100170.56;;;30.28;57.77
54736;BME280;40632;51.442;11.936;2022-08-20T04:13:17;100173.34;;;30.04;57.80
54736;BME280;40632;51.442;11.936;2022-08-20T04:15:47;100173.75;;;30.94;55.93
54736;BME280;40632;51.442;11.936;2022-08-20T04:18:14;100181.69;;;30.14;57.78
54736;BME280;40632;51.442;11.936;2022-08-20T04:20:41;100177.66;;;30.86;55.83
54736;BME280;40632;51.442;11.936;2022-08-20T04:23:08;100178.78;;;31.02;55.78
54736;BME280;40632;51.442;11.936;2022-08-20T04:25:35;100180.44;;;30.74;56.68
54736;BME280;40632;51.442;11.936;2022-08-20T04:28:03;100177.19;;;30.32;58.12
54736;BME280;40632;51.442;11.936;2022-08-20T04:30:29;100180.44;;;29.70;59.82
54736;BME280;40632;51.442;11.936;2022-08-20T04:32:57;100179.94;;;29.49;60.78
54736;BME280;40632;51.442;11.936;2022-08-20T04:35:23;100182.22;;;29.88;59.11
54736;BME280;40632;51.442;11.936;2022-08-20T04:37:57;100184.78;;;30.58;58.01
54736;BME280;40632;51.442;11.936;2022-08-20T04:40:22;100180.19;;;31.22;56.06
54736;BME280;40632;51.442;11.936;2022-08-20T04:42:49;100190.34;;;30.69;56.71
54736;BME280;40632;51.442;11.936;2022-08-20T04:45:15;100180.47;;;30.91;55.78
54736;BME280;40632;51.442;11.936;2022-08-20T04:47:41;100183.72;;;31.05;55.99
54736;BME280;40632;51.442;11.936;2022-08-20T04:50:11;100187.97;;;31.01;56.26
54736;BME280;40632;51.442;11.936;2022-08-20T04:52:38;100191.97;;;31.10;55.71
54736;BME280;40632;51.442;11.936;2022-08-20T04:55:04;100192.88;;;31.50;55.30
54736;BME280;40632;51.442;11.936;2022-08-20T04:57:30;100193.84;;;31.61;54.71
54736;BME280;40632;51.442;11.936;2022-08-20T04:59:56;100199.84;;;31.29;55.84
54736;BME280;40632;51.442;11.936;2022-08-20T05:02:22;100201.72;;;31.45;55.80
54736;BME280;40632;51.442;11.936;2022-08-20T05:04:48;100205.44;;;31.39;55.80
54736;BME280;40632;51.442;11.936;2022-08-20T05:07:16;100209.69;;;31.35;55.68
54736;BME280;40632;51.442;11.936;2022-08-20T05:09:42;100210.31;;;31.54;55.01
54736;BME280;40632;51.442;11.936;2022-08-20T05:12:08;100213.59;;;31.56;55.15
54736;BME280;40632;51.442;11.936;2022-08-20T05:14:34;100217.44;;;31.43;55.23
54736;BME280;40632;51.442;11.936;2022-08-20T05:17:01;100215.84;;;31.47;55.26
54736;BME280;40632;51.442;11.936;2022-08-20T05:19:27;100215.97;;;32.08;53.73
54736;BME280;40632;51.442;11.936;2022-08-20T05:21:53;100221.72;;;31.56;55.01
54736;BME280;40632;51.442;11.936;2022-08-20T05:24:21;100219.97;;;31.33;55.14
54736;BME280;40632;51.442;11.936;2022-08-20T05:26:47;100225.41;;;31.16;55.70
54736;BME280;40632;51.442;11.936;2022-08-20T05:29:12;100221.00;;;31.61;54.98
54736;BME280;40632;51.442;11.936;2022-08-20T05:31:38;100228.56;;;31.98;54.10
54736;BME280;40632;51.442;11.936;2022-08-20T05:34:06;100229.19;;;32.44;53.57
54736;BME280;40632;51.442;11.936;2022-08-20T05:36:32;100236.91;;;32.52;52.69
54736;BME280;40632;51.442;11.936;2022-08-20T05:38:58;100237.22;;;32.11;53.56
54736;BME280;40632;51.442;11.936;2022-08-20T05:41:26;100238.69;;;32.41;53.44
54736;BME280;40632;51.442;11.936;2022-08-20T05:43:52;100236.22;;;32.40;54.08
54736;BME280;40632;51.442;11.936;2022-08-20T05:46:17;100231.03;;;31.99;55.17
54736;BME280;40632;51.442;11.936;2022-08-20T05:48:43;100237.47;;;31.93;54.92
54736;BME280;40632;51.442;11.936;2022-08-20T05:51:08;100232.16;;;32.03;55.06
54736;BME280;40632;51.442;11.936;2022-08-20T05:53:35;100236.97;;;32.35;54.47
54736;BME280;40632;51.442;11.936;2022-08-20T05:56:00;100229.00;;;32.06;55.07
54736;BME280;40632;51.442;11.936;2022-08-20T05:58:28;100230.31;;;31.87;54.83
54736;BME280;40632;51.442;11.936;2022-08-20T06:00:54;100224.75;;;31.77;55.28
54736;BME280;40632;51.442;11.936;2022-08-20T06:03:20;100236.00;;;31.85;54.80
54736;BME280;40632;51.442;11.936;2022-08-20T06:05:46;100230.72;;;32.35;53.90
54736;BME280;40632;51.442;11.936;2022-08-20T06:08:12;100232.59;;;32.56;53.61
54736;BME280;40632;51.442;11.936;2022-08-20T06:10:38;100231.66;;;32.45;54.30
54736;BME280;40632;51.442;11.936;2022-08-20T06:13:05;100230.63;;;32.52;53.93
54736;BME280;40632;51.442;11.936;2022-08-20T06:15:34;100229.69;;;32.41;54.52
54736;BME280;40632;51.442;11.936;2022-08-20T06:18:00;100227.91;;;32.52;54.06
54736;BME280;40632;51.442;11.936;2022-08-20T06:20:26;100225.25;;;32.79;53.46
54736;BME280;40632;51.442;11.936;2022-08-20T06:22:52;100223.69;;;32.39;53.99
54736;BME280;40632;51.442;11.936;2022-08-20T06:25:18;100227.75;;;32.36;53.90
54736;BME280;40632;51.442;11.936;2022-08-20T06:27:44;100234.97;;;32.70;53.15
54736;BME280;40632;51.442;11.936;2022-08-20T06:30:11;100239.88;;;32.73;53.15
54736;BME280;40632;51.442;11.936;2022-08-20T06:32:40;100237.72;;;32.53;53.72
54736;BME280;40632;51.442;11.936;2022-08-20T06:35:08;100241.00;;;31.93;55.35
54736;BME280;40632;51.442;11.936;2022-08-20T06:37:36;100241.47;;;32.46;54.73
54736;BME280;40632;51.442;11.936;2022-08-20T06:40:05;100239.59;;;32.30;54.69
54736;BME280;40632;51.442;11.936;2022-08-20T06:42:31;100236.38;;;32.55;53.70
54736;BME280;40632;51.442;11.936;2022-08-20T06:44:57;100241.69;;;32.23;54.14
54736;BME280;40632;51.442;11.936;2022-08-20T06:47:23;100242.16;;;32.59;54.01
54736;BME280;40632;51.442;11.936;2022-08-20T06:49:51;100241.22;;;32.70;53.80
54736;BME280;40632;51.442;11.936;2022-08-20T06:52:17;100249.81;;;32.62;53.22
54736;BME280;40632;51.442;11.936;2022-08-20T06:54:42;100253.50;;;32.34;53.79
54736;BME280;40632;51.442;11.936;2022-08-20T06:57:08;100250.44;;;32.69;53.41
54736;BME280;40632;51.442;11.936;2022-08-20T06:59:33;100251.97;;;31.82;55.77
54736;BME280;40632;51.442;11.936;2022-08-20T07:01:59;100267.28;;;31.54;56.01
54736;BME280;40632;51.442;11.936;2022-08-20T07:04:25;100268.16;;;31.26;56.81
54736;BME280;40632;51.442;11.936;2022-08-20T07:06:54;100271.38;;;30.30;58.65
54736;BME280;40632;51.442;11.936;2022-08-20T07:09:20;100273.22;;;30.65;58.01
54736;BME280;40632;51.442;11.936;2022-08-20T07:11:46;100277.31;;;29.91;59.83
54736;BME280;40632;51.442;11.936;2022-08-20T07:14:12;100274.91;;;29.71;60.63
54736;BME280;40632;51.442;11.936;2022-08-20T07:16:37;100279.28;;;30.55;59.12
54736;BME280;40632;51.442;11.936;2022-08-20T07:19:03;100280.34;;;30.18;59.71
54736;BME280;40632;51.442;11.936;2022-08-20T07:21:29;100283.44;;;29.75;60.42
54736;BME280;40632;51.442;11.936;2022-08-20T07:23:57;100284.34;;;29.92;61.13
54736;BME280;40632;51.442;11.936;2022-08-20T07:26:23;100291.31;;;30.00;60.99
54736;BME280;40632;51.442;11.936;2022-08-20T07:28:48;100296.25;;;30.27;59.18
54736;BME280;40632;51.442;11.936;2022-08-20T07:31:14;100297.91;;;30.16;60.10
54736;BME280;40632;51.442;11.936;2022-08-20T07:33:40;100296.72;;;30.00;60.16
54736;BME280;40632;51.442;11.936;2022-08-20T07:36:07;100299.19;;;31.64;57.15
54736;BME280;40632;51.442;11.936;2022-08-20T07:38:34;100300.22;;;30.59;58.44
54736;BME280;40632;51.442;11.936;2022-08-20T07:41:04;100301.78;;;30.08;60.10
54736;BME280;40632;51.442;11.936;2022-08-20T07:43:31;100305.56;;;29.83;60.15
54736;BME280;40632;51.442;11.936;2022-08-20T07:45:59;100304.09;;;30.64;59.59
54736;BME280;40632;51.442;11.936;2022-08-20T07:48:26;100309.31;;;30.94;58.51
54736;BME280;40632;51.442;11.936;2022-08-20T07:50:53;100310.63;;;31.83;56.31
54736;BME280;40632;51.442;11.936;2022-08-20T07:53:19;100307.78;;;31.44;56.94
54736;BME280;40632;51.442;11.936;2022-08-20T07:55:44;100310.59;;;32.00;56.21
54736;BME280;40632;51.442;11.936;2022-08-20T07:58:14;100314.00;;;31.56;56.18
54736;BME280;40632;51.442;11.936;2022-08-20T08:00:41;100309.72;;;31.14;57.23
54736;BME280;40632;51.442;11.936;2022-08-20T08:03:07;100312.16;;;31.45;57.33
54736;BME280;40632;51.442;11.936;2022-08-20T08:05:37;100309.38;;;31.90;56.19
54736;BME280;40632;51.442;11.936;2022-08-20T08:08:05;100305.03;;;32.62;53.79
54736;BME280;40632;51.442;11.936;2022-08-20T08:10:31;100302.72;;;33.03;53.16
54736;BME280;40632;51.442;11.936;2022-08-20T08:12:59;100309.25;;;33.24;53.15
54736;BME280;40632;51.442;11.936;2022-08-20T08:15:31;100313.84;;;32.75;52.76
54736;BME280;40632;51.442;11.936;2022-08-20T08:18:00;100307.34;;;32.15;54.57
54736;BME280;40632;51.442;11.936;2022-08-20T08:20:26;100304.53;;;32.93;53.80
54736;BME280;40632;51.442;11.936;2022-08-20T08:22:52;100308.88;;;33.16;52.00
54736;BME280;40632;51.442;11.936;2022-08-20T08:25:18;100306.66;;;33.67;51.06
54736;BME280;40632;51.442;11.936;2022-08-20T08:27:43;100306.22;;;33.53;51.06
54736;BME280;40632;51.442;11.936;2022-08-20T08:30:10;100304.66;;;34.37;49.53
54736;BME280;40632;51.442;11.936;2022-08-20T08:32:38;100310.56;;;34.72;49.72
54736;BME280;40632;51.442;11.936;2022-08-20T08:35:05;100306.94;;;34.56;49.46
54736;BME280;40632;51.442;11.936;2022-08-20T08:37:31;100317.56;;;35.31;48.79
54736;BME280;40632;51.442;11.936;2022-08-20T08:39:57;100305.66;;;34.74;49.55
54736;BME280;40632;51.442;11.936;2022-08-20T08:42:32;100306.88;;;34.46;48.88
54736;BME280;40632;51.442;11.936;2022-08-20T08:44:58;100306.50;;;34.22;49.46
54736;BME280;40632;51.442;11.936;2022-08-20T08:47:28;100309.50;;;34.20;49.48
54736;BME280;40632;51.442;11.936;2022-08-20T08:49:57;100318.88;;;34.45;49.08
54736;BME280;40632;51.442;11.936;2022-08-20T08:52:25;100310.59;;;34.87;48.10
54736;BME280;40632;51.442;11.936;2022-08-20T08:54:55;100311.94;;;34.74;47.88
54736;BME280;40632;51.442;11.936;2022-08-20T08:57:21;100306.91;;;34.03;50.07
54736;BME280;40632;51.442;11.936;2022-08-20T08:59:51;100311.25;;;34.42;48.87
54736;BME280;40632;51.442;11.936;2022-08-20T09:02:21;100317.25;;;34.01;49.62
54736;BME280;40632;51.442;11.936;2022-08-20T09:04:48;100316.94;;;33.97;49.76
54736;BME280;40632;51.442;11.936;2022-08-20T09:07:16;100316.19;;;34.55;49.31
54736;BME280;40632;51.442;11.936;2022-08-20T09:09:44;100311.72;;;34.97;48.09
54736;BME280;40632;51.442;11.936;2022-08-20T09:12:12;100328.50;;;34.58;49.33
54736;BME280;40632;51.442;11.936;2022-08-20T09:14:39;100321.66;;;35.44;47.43
54736;BME280;40632;51.442;11.936;2022-08-20T09:17:05;100325.75;;;35.57;47.62
54736;BME280;40632;51.442;11.936;2022-08-20T09:19:30;100319.72;;;34.03;50.33
54736;BME280;40632;51.442;11.936;2022-08-20T09:21:56;100322.31;;;34.78;48.74
54736;BME280;40632;51.442;11.936;2022-08-20T09:24:24;100324.91;;;34.52;49.49
54736;BME280;40632;51.442;11.936;2022-08-20T09:26:50;100325.19;;;36.21;46.56
54736;BME280;40632;51.442;11.936;2022-08-20T09:29:16;100330.09;;;35.63;47.44
54736;BME280;40632;51.442;11.936;2022-08-20T09:31:42;100331.34;;;34.83;47.45
54736;BME280;40632;51.442;11.936;2022-08-20T09:34:08;100324.41;;;34.17;49.26
54736;BME280;40632;51.442;11.936;2022-08-20T09:36:34;100327.59;;;35.15;46.34
54736;BME280;40632;51.442;11.936;2022-08-20T09:39:00;100327.41;;;35.73;46.62
54736;BME280;40632;51.442;11.936;2022-08-20T09:41:29;100325.41;;;34.38;48.06
54736;BME280;40632;51.442;11.936;2022-08-20T09:43:54;100335.69;;;33.89;49.32
54736;BME280;40632;51.442;11.936;2022-08-20T09:46:20;100333.88;;;33.40;49.45
54736;BME280;40632;51.442;11.936;2022-08-20T09:48:46;100335.06;;;33.49;49.63
54736;BME280;40632;51.442;11.936;2022-08-20T09:51:11;100326.56;;;33.73;49.61
54736;BME280;40632;51.442;11.936;2022-08-20T09:53:37;100326.34;;;34.65;47.29
54736;BME280;40632;51.442;11.936;2022-08-20T09:56:03;100327.06;;;35.13;46.80
54736;BME280;40632;51.442;11.936;2022-08-20T09:58:34;100323.47;;;34.97;46.35
54736;BME280;40632;51.442;11.936;2022-08-20T10:01:05;100328.78;;;35.76;45.42
54736;BME280;40632;51.442;11.936;2022-08-20T10:03:31;100327.66;;;35.41;45.40
54736;BME280;40632;51.442;11.936;2022-08-20T10:05:57;100322.50;;;35.75;45.97
54736;BME280;40632;51.442;11.936;2022-08-20T10:08:22;100324.09;;;35.35;45.60
54736;BME280;40632;51.442;11.936;2022-08-20T10:10:48;100327.09;;;36.05;44.43
54736;BME280;40632;51.442;11.936;2022-08-20T10:13:13;100328.19;;;36.20;44.20
54736;BME280;40632;51.442;11.936;2022-08-20T10:15:42;100323.56;;;35.28;46.56
54736;BME280;40632;51.442;11.936;2022-08-20T10:18:07;100333.09;;;36.13;44.40
54736;BME280;40632;51.442;11.936;2022-08-20T10:20:33;100332.56;;;35.28;45.39
54736;BME280;40632;51.442;11.936;2022-08-20T10:22:59;100330.53;;;36.52;44.17
54736;BME280;40632;51.442;11.936;2022-08-20T10:25:25;100329.03;;;35.89;44.45
54736;BME280;40632;51.442;11.936;2022-08-20T10:27:50;100325.44;;;36.15;44.07
54736;BME280;40632;51.442;11.936;2022-08-20T10:30:16;100316.41;;;37.39;41.82
54736;BME280;40632;51.442;11.936;2022-08-20T10:32:44;100324.22;;;37.56;41.71
54736;BME280;40632;51.442;11.936;2022-08-20T10:35:10;100319.41;;;38.07;41.55
54736;BME280;40632;51.442;11.936;2022-08-20T10:37:36;100320.59;;;37.32;42.02
54736;BME280;40632;51.442;11.936;2022-08-20T10:40:02;100326.56;;;35.93;44.53
54736;BME280;40632;51.442;11.936;2022-08-20T10:42:28;100325.22;;;36.87;42.80
54736;BME280;40632;51.442;11.936;2022-08-20T10:44:53;100327.34;;;36.30;43.12
54736;BME280;40632;51.442;11.936;2022-08-20T10:47:21;100337.22;;;35.54;44.22
54736;BME280;40632;51.442;11.936;2022-08-20T10:49:52;100334.84;;;34.79;45.16
54736;BME280;40632;51.442;11.936;2022-08-20T10:52:19;100330.78;;;34.81;45.30
54736;BME280;40632;51.442;11.936;2022-08-20T10:54:44;100326.19;;;34.92;44.99
54736;BME280;40632;51.442;11.936;2022-08-20T10:57:13;100338.28;;;35.32;44.84
54736;BME280;40632;51.442;11.936;2022-08-20T10:59:40;100326.75;;;36.43;43.17
54736;BME280;40632;51.442;11.936;2022-08-20T11:02:07;100330.94;;;35.74;42.78
54736;BME280;40632;51.442;11.936;2022-08-20T11:04:32;100336.69;;;34.68;44.04
54736;BME280;40632;51.442;11.936;2022-08-20T11:07:09;100335.81;;;34.52;44.06
54736;BME280;40632;51.442;11.936;2022-08-20T11:09:35;100337.00;;;35.81;42.20
54736;BME280;40632;51.442;11.936;2022-08-20T11:12:00;100339.69;;;35.40;43.23
54736;BME280;40632;51.442;11.936;2022-08-20T11:14:26;100342.41;;;34.61;44.88
54736;BME280;40632;51.442;11.936;2022-08-20T11:16:51;100333.94;;;35.67;43.07
54736;BME280;40632;51.442;11.936;2022-08-20T11:19:17;100338.31;;;35.37;43.27
54736;BME280;40632;51.442;11.936;2022-08-20T11:21:43;100342.53;;;33.91;45.01
54736;BME280;40632;51.442;11.936;2022-08-20T11:24:11;100347.75;;;35.09;43.49
54736;BME280;40632;51.442;11.936;2022-08-20T11:26:37;100340.22;;;34.15;45.55
54736;BME280;40632;51.442;11.936;2022-08-20T11:29:02;100344.34;;;35.85;42.41
54736;BME280;40632;51.442;11.936;2022-08-20T11:31:28;100345.41;;;35.64;42.53
54736;BME280;40632;51.442;11.936;2022-08-20T11:33:54;100343.78;;;35.68;42.44
54736;BME280;40632;51.442;11.936;2022-08-20T11:36:19;100337.53;;;35.88;42.94
54736;BME280;40632;51.442;11.936;2022-08-20T11:38:45;100339.06;;;36.40;41.29
54736;BME280;40632;51.442;11.936;2022-08-20T11:41:13;100340.22;;;36.03;42.24
54736;BME280;40632;51.442;11.936;2022-08-20T11:43:39;100334.94;;;36.53;41.66
54736;BME280;40632;51.442;11.936;2022-08-20T11:46:04;100347.06;;;35.49;42.11
54736;BME280;40632;51.442;11.936;2022-08-20T11:48:30;100345.94;;;35.56;41.90
54736;BME280;40632;51.442;11.936;2022-08-20T11:50:56;100344.19;;;34.98;43.27
54736;BME280;40632;51.442;11.936;2022-08-20T11:53:21;100347.59;;;35.31;42.27
54736;BME280;40632;51.442;11.936;2022-08-20T11:55:47;100349.44;;;34.47;44.58
54736;BME280;40632;51.442;11.936;2022-08-20T11:58:16;100349.63;;;34.88;43.14
54736;BME280;40632;51.442;11.936;2022-08-20T12:00:42;100343.50;;;36.31;40.52
54736;BME280;40632;51.442;11.936;2022-08-20T12:03:08;100358.25;;;36.10;41.02
54736;BME280;40632;51.442;11.936;2022-08-20T12:05:33;100350.38;;;36.94;40.55
54736;BME280;40632;51.442;11.936;2022-08-20T12:08:00;100341.25;;;37.09;40.08
54736;BME280;40632;51.442;11.936;2022-08-20T12:10:26;100345.16;;;35.65;41.94
54736;BME280;40632;51.442;11.936;2022-08-20T12:12:51;100340.84;;;34.70;43.48
54736;BME280;40632;51.442;11.936;2022-08-20T12:15:19;100339.41;;;35.36;43.27
54736;BME280;40632;51.442;11.936;2022-08-20T12:17:45;100340.22;;;36.94;40.56
54736;BME280;40632;51.442;11.936;2022-08-20T12:20:13;100333.09;;;36.18;41.05
54736;BME280;40632;51.442;11.936;2022-08-20T12:22:39;100331.03;;;37.64;39.22
54736;BME280;40632;51.442;11.936;2022-08-20T12:25:07;100327.84;;;38.16;38.31
54736;BME280;40632;51.442;11.936;2022-08-20T12:27:34;100330.53;;;37.17;39.89
54736;BME280;40632;51.442;11.936;2022-08-20T12:30:04;100329.16;;;37.20;39.81
54736;BME280;40632;51.442;11.936;2022-08-20T12:32:33;100323.97;;;38.41;38.28
54736;BME280;40632;51.442;11.936;2022-08-20T12:34:59;100325.66;;;38.12;39.56
54736;BME280;40632;51.442;11.936;2022-08-20T12:37:26;100327.88;;;39.02;37.59